createdAt,value
2022-10-22T00:02:20.653Z,68.90
2022-10-22T00:04:50.994Z,68.95
2022-10-22T00:07:18.716Z,68.80
2022-10-22T00:09:45.821Z,68.89
2022-10-22T00:12:14.959Z,68.73
2022-10-22T00:14:42.832Z,68.74
2022-10-22T00:17:11.474Z,68.81
2022-10-22T00:19:39.496Z,68.75
2022-10-22T00:22:07.065Z,68.95
2022-10-22T00:24:34.811Z,69.07
2022-10-22T00:27:01.780Z,68.89
2022-10-22T00:29:28.586Z,68.99
2022-10-22T00:34:27.319Z,69.07
2022-10-22T00:36:54.372Z,69.26
2022-10-22T00:39:23.937Z,69.04
2022-10-22T00:41:52.359Z,69.16
2022-10-22T00:44:56.454Z,69.40
2022-10-22T00:47:25.422Z,69.63
2022-10-22T00:49:54.118Z,69.62
2022-10-22T00:52:21.732Z,69.61
2022-10-22T00:54:48.942Z,69.89
2022-10-22T00:57:17.068Z,69.65
2022-10-22T00:59:43.840Z,70.31
2022-10-22T01:02:10.918Z,69.82
2022-10-22T01:04:37.619Z,69.86
2022-10-22T01:07:04.918Z,70.10
2022-10-22T01:09:47.167Z,70.09
2022-10-22T01:12:34.728Z,69.65
2022-10-22T01:15:12.153Z,70.02
2022-10-22T01:17:58.453Z,70.11
2022-10-22T01:20:53.608Z,70.26
2022-10-22T01:23:26.076Z,70.17
2022-10-22T01:26:06.850Z,70.41
2022-10-22T01:28:45.679Z,70.34
2022-10-22T01:31:13.754Z,70.27
2022-10-22T01:33:41.429Z,70.28
2022-10-22T01:36:09.471Z,70.41
2022-10-22T01:38:37.022Z,70.19
2022-10-22T01:41:03.910Z,70.06
2022-10-22T01:43:30.594Z,70.36
2022-10-22T01:46:01.383Z,70.14
2022-10-22T01:49:14.342Z,70.02
2022-10-22T01:51:53.835Z,69.93
2022-10-22T01:54:49.593Z,70.15
2022-10-22T01:57:51.729Z,70.00
2022-10-22T02:00:19.681Z,69.94
2022-10-22T02:03:08.237Z,70.08
2022-10-22T02:05:58.870Z,70.26
2022-10-22T02:08:31.308Z,70.00
2022-10-22T02:10:59.866Z,70.19
2022-10-22T02:13:41.544Z,70.22
2022-10-22T02:16:11.424Z,69.75
2022-10-22T02:18:43.332Z,69.70
2022-10-22T02:21:10.164Z,69.48
2022-10-22T02:23:37.169Z,69.54
2022-10-22T02:26:45.333Z,69.73
2022-10-22T02:29:15.694Z,69.72
2022-10-22T02:31:44.551Z,69.87
2022-10-22T02:34:16.486Z,69.90
2022-10-22T02:36:48.055Z,69.35
2022-10-22T02:39:19.420Z,68.89
2022-10-22T02:41:46.436Z,68.67
2022-10-22T02:44:13.283Z,69.01
2022-10-22T02:46:40.952Z,69.14
2022-10-22T02:49:07.948Z,69.55
2022-10-22T02:51:34.948Z,69.40
2022-10-22T02:54:01.932Z,69.56
2022-10-22T02:56:28.688Z,69.53
2022-10-22T02:58:55.359Z,69.49
2022-10-22T03:01:22.216Z,69.88
2022-10-22T03:03:49.161Z,69.87
2022-10-22T03:06:16.243Z,70.14
2022-10-22T03:08:43.715Z,70.09
2022-10-22T03:11:10.538Z,70.02
2022-10-22T03:13:37.283Z,69.68
2022-10-22T03:16:04.197Z,70.01
2022-10-22T03:18:31.001Z,70.13
2022-10-22T03:21:13.889Z,70.11
2022-10-22T03:23:43.593Z,70.15
2022-10-22T03:26:12.568Z,70.18
2022-10-22T03:28:41.289Z,70.21
2022-10-22T03:31:08.151Z,69.91
2022-10-22T03:33:34.754Z,69.92
2022-10-22T03:36:02.093Z,69.80
2022-10-22T03:38:29.687Z,69.97
2022-10-22T03:40:56.441Z,69.79
2022-10-22T03:43:23.164Z,70.21
2022-10-22T03:45:49.812Z,70.19
2022-10-22T03:48:16.393Z,69.83
2022-10-22T03:50:43.104Z,69.78
2022-10-22T03:53:10.678Z,69.73
2022-10-22T03:55:38.378Z,69.67
2022-10-22T03:58:05.911Z,69.18
2022-10-22T04:00:34.157Z,68.97
2022-10-22T04:03:00.753Z,69.08
2022-10-22T04:05:27.535Z,69.03
2022-10-22T04:07:54.289Z,68.82
2022-10-22T04:10:21.117Z,69.28
2022-10-22T04:12:48.550Z,69.20
2022-10-22T04:15:15.511Z,69.35
2022-10-22T04:17:42.405Z,69.21
2022-10-22T04:20:10.443Z,69.21
2022-10-22T04:22:37.473Z,69.31
2022-10-22T04:25:05.217Z,68.99
2022-10-22T04:27:33.327Z,68.85
2022-10-22T04:30:00.016Z,68.88
2022-10-22T04:32:28.012Z,68.08
2022-10-22T04:34:54.937Z,67.74
2022-10-22T04:37:21.678Z,67.31
2022-10-22T04:39:48.339Z,66.65
2022-10-22T04:42:15.208Z,66.53
2022-10-22T04:44:41.825Z,66.22
2022-10-22T04:47:08.474Z,66.40
2022-10-22T04:49:35.100Z,66.30
2022-10-22T04:52:01.760Z,66.46
2022-10-22T04:54:32.138Z,66.52
2022-10-22T04:57:00.350Z,66.60
2022-10-22T04:59:27.150Z,66.50
2022-10-22T05:01:53.709Z,66.01
2022-10-22T05:04:20.323Z,65.76
2022-10-22T05:06:47.394Z,65.51
2022-10-22T05:09:19.909Z,65.13
2022-10-22T05:11:49.220Z,65.20
2022-10-22T05:14:19.894Z,65.13
2022-10-22T05:16:48.606Z,64.99
2022-10-22T05:19:34.187Z,64.88
2022-10-22T05:22:02.531Z,65.05
2022-10-22T05:24:32.588Z,65.08
2022-10-22T05:27:00.201Z,64.95
2022-10-22T05:29:27.436Z,64.83
2022-10-22T05:31:54.052Z,64.88
2022-10-22T05:34:20.797Z,64.93
2022-10-22T05:36:47.630Z,64.79
2022-10-22T05:39:14.206Z,64.97
2022-10-22T05:41:41.937Z,64.76
2022-10-22T05:44:12.621Z,64.44
2022-10-22T05:46:39.662Z,64.46
2022-10-22T05:49:07.348Z,64.45
2022-10-22T05:51:36.496Z,64.95
2022-10-22T05:54:06.269Z,65.18
2022-10-22T05:56:34.077Z,64.95
2022-10-22T05:59:00.977Z,65.01
2022-10-22T06:01:32.667Z,65.21
2022-10-22T06:04:03.236Z,65.27
2022-10-22T06:06:38.737Z,65.26
2022-10-22T06:09:14.559Z,65.20
2022-10-22T06:11:41.334Z,65.32
2022-10-22T06:14:07.930Z,64.72
2022-10-22T06:16:34.574Z,64.47
2022-10-22T06:19:02.295Z,64.33
2022-10-22T06:21:31.025Z,64.18
2022-10-22T06:23:59.942Z,63.97
2022-10-22T06:26:26.669Z,63.88
2022-10-22T06:28:53.485Z,63.91
2022-10-22T06:31:20.214Z,63.52
2022-10-22T06:33:46.901Z,63.63
2022-10-22T06:36:16.795Z,63.64
2022-10-22T06:38:44.135Z,63.35
2022-10-22T06:41:15.771Z,63.02
2022-10-22T06:43:47.092Z,62.70
2022-10-22T06:46:19.097Z,62.64
2022-10-22T06:48:56.900Z,62.53
2022-10-22T06:51:23.784Z,62.45
2022-10-22T06:53:50.409Z,62.38
2022-10-22T06:56:20.455Z,62.28
2022-10-22T06:58:51.634Z,62.47
2022-10-22T07:01:21.198Z,62.25
2022-10-22T07:03:51.439Z,62.02
2022-10-22T07:06:19.666Z,61.87
2022-10-22T07:08:46.963Z,61.63
2022-10-22T07:11:16.390Z,61.26
2022-10-22T07:13:43.308Z,60.91
2022-10-22T07:16:10.442Z,60.58
2022-10-22T07:18:38.950Z,60.08
2022-10-22T07:21:07.231Z,59.81
2022-10-22T07:23:34.238Z,59.56
2022-10-22T07:26:02.886Z,58.89
2022-10-22T07:28:30.700Z,58.57
2022-10-22T07:30:57.320Z,58.12
2022-10-22T07:33:23.962Z,57.63
2022-10-22T07:35:50.589Z,57.64
2022-10-22T07:38:17.521Z,57.39
2022-10-22T07:40:44.196Z,56.93
2022-10-22T07:43:10.802Z,56.23
2022-10-22T07:45:37.587Z,55.80
2022-10-22T07:48:04.801Z,55.40
2022-10-22T07:50:31.404Z,55.11
2022-10-22T07:52:58.447Z,54.83
2022-10-22T07:55:25.722Z,54.57
2022-10-22T07:57:52.457Z,53.81
2022-10-22T08:00:21.739Z,52.92
2022-10-22T08:02:51.325Z,52.44
2022-10-22T08:05:18.116Z,52.02
2022-10-22T08:07:44.834Z,51.51
2022-10-22T08:10:12.780Z,50.85
2022-10-22T08:12:40.822Z,50.19
2022-10-22T08:15:08.425Z,49.54
2022-10-22T08:17:35.224Z,49.31
2022-10-22T08:20:01.832Z,49.05
2022-10-22T08:22:28.511Z,49.28
2022-10-22T08:24:55.342Z,49.36
2022-10-22T08:27:22.028Z,48.75
2022-10-22T08:29:48.710Z,48.34
2022-10-22T08:32:15.490Z,48.41
2022-10-22T08:34:42.154Z,47.84
2022-10-22T08:37:10.611Z,47.21
2022-10-22T08:39:37.325Z,46.88
2022-10-22T08:42:27.064Z,46.40
2022-10-22T08:45:12.990Z,46.13
2022-10-22T08:47:59.678Z,45.84
2022-10-22T08:50:41.112Z,45.74
2022-10-22T08:53:15.564Z,45.37
2022-10-22T08:55:43.533Z,45.09
2022-10-22T08:58:47.268Z,44.77
2022-10-22T09:01:34.978Z,44.65
2022-10-22T09:04:25.632Z,44.25
2022-10-22T09:06:58.726Z,44.42
2022-10-22T09:09:36.313Z,44.37
2022-10-22T09:12:07.226Z,44.19
2022-10-22T09:14:33.893Z,44.45
2022-10-22T09:17:14.019Z,44.13
2022-10-22T09:19:56.012Z,44.08
2022-10-22T09:22:53.746Z,43.71
2022-10-22T09:25:27.965Z,43.46
2022-10-22T09:27:58.464Z,43.68
2022-10-22T09:30:35.521Z,43.56
2022-10-22T09:33:07.250Z,43.35
2022-10-22T09:35:47.424Z,42.88
2022-10-22T09:38:16.949Z,43.13
2022-10-22T09:40:47.633Z,42.61
2022-10-22T09:43:14.992Z,42.79
2022-10-22T09:45:43.180Z,43.00
2022-10-22T09:48:18.906Z,42.95
2022-10-22T09:50:55.173Z,42.70
2022-10-22T09:53:31.397Z,42.67
2022-10-22T09:56:01.570Z,41.93
2022-10-22T09:58:28.676Z,42.02
2022-10-22T10:00:58.501Z,41.52
2022-10-22T10:03:28.608Z,41.31
2022-10-22T10:06:01.620Z,41.09
2022-10-22T10:08:32.469Z,41.18
2022-10-22T10:11:12.963Z,41.07
2022-10-22T10:13:44.030Z,40.89
2022-10-22T10:16:25.642Z,41.27
2022-10-22T10:19:19.647Z,41.02
2022-10-22T10:22:02.475Z,41.33
2022-10-22T10:24:37.973Z,41.30
2022-10-22T10:27:29.328Z,41.03
2022-10-22T10:30:13.465Z,40.95
2022-10-22T10:32:55.448Z,40.95
2022-10-22T10:35:35.271Z,41.05
2022-10-22T10:38:09.475Z,40.66
2022-10-22T10:40:52.912Z,40.71
2022-10-22T10:43:23.261Z,40.73
2022-10-22T10:45:55.737Z,40.76
2022-10-22T10:48:33.382Z,40.73
2022-10-22T10:51:24.077Z,40.73
2022-10-22T10:53:59.909Z,40.93
2022-10-22T10:56:49.612Z,40.63
2022-10-22T10:59:16.152Z,40.36
2022-10-22T11:02:11.465Z,40.39
2022-10-22T11:04:57.054Z,40.42
2022-10-22T11:07:45.847Z,40.81
2022-10-22T11:10:29.538Z,40.63
2022-10-22T11:13:06.713Z,40.45
2022-10-22T11:15:37.654Z,40.21
2022-10-22T11:18:18.100Z,39.99
2022-10-22T11:21:03.829Z,40.01
2022-10-22T11:23:45.209Z,40.08
2022-10-22T11:26:23.164Z,40.10
2022-10-22T11:28:53.887Z,40.14
2022-10-22T11:31:25.873Z,40.30
2022-10-22T11:34:28.341Z,40.27
2022-10-22T11:36:53.791Z,40.83
2022-10-22T11:39:47.986Z,40.51
2022-10-22T11:42:23.771Z,40.60
2022-10-22T11:45:00.728Z,40.42
2022-10-22T11:48:09.279Z,40.32
2022-10-22T11:50:44.741Z,40.20
2022-10-22T11:53:14.161Z,40.08
2022-10-22T11:55:48.064Z,40.33
2022-10-22T11:58:31.557Z,40.35
2022-10-22T12:01:18.312Z,40.55
2022-10-22T12:03:49.182Z,40.69
2022-10-22T12:06:16.013Z,40.49
2022-10-22T12:08:50.654Z,40.16
2022-10-22T12:11:24.599Z,40.10
2022-10-22T12:14:04.158Z,40.23
2022-10-22T12:16:54.705Z,40.41
2022-10-22T12:19:23.402Z,41.19
2022-10-22T12:21:55.999Z,41.19
2022-10-22T12:24:26.126Z,41.26
2022-10-22T12:26:53.009Z,41.16
2022-10-22T12:29:26.812Z,41.35
2022-10-22T12:31:54.696Z,41.37
2022-10-22T12:34:25.563Z,40.82
2022-10-22T12:36:55.416Z,41.08
2022-10-22T12:39:26.658Z,41.44
2022-10-22T12:41:55.752Z,41.58
2022-10-22T12:44:22.507Z,41.71
2022-10-22T12:46:53.048Z,42.28
2022-10-22T12:49:29.058Z,42.57
2022-10-22T12:52:00.513Z,42.56
2022-10-22T12:54:33.096Z,43.05
2022-10-22T12:57:00.570Z,43.19
2022-10-22T12:59:32.995Z,44.15
2022-10-22T13:01:59.856Z,45.12
2022-10-22T13:04:26.830Z,44.86
2022-10-22T13:07:15.945Z,43.82
2022-10-22T13:09:48.236Z,43.81
2022-10-22T13:12:16.929Z,43.87
2022-10-22T13:14:45.657Z,43.23
2022-10-22T13:17:12.334Z,43.12
2022-10-22T13:19:53.031Z,43.84
2022-10-22T13:22:29.577Z,44.53
2022-10-22T13:24:59.725Z,44.71
2022-10-22T13:27:28.455Z,44.94
2022-10-22T13:29:57.224Z,44.42
2022-10-22T13:32:34.248Z,44.16
2022-10-22T13:35:02.816Z,44.52
2022-10-22T13:37:32.782Z,44.78
2022-10-22T13:39:59.583Z,44.49
2022-10-22T13:42:26.187Z,44.64
2022-10-22T13:44:52.760Z,45.60
2022-10-22T13:47:28.992Z,45.93
2022-10-22T13:49:58.700Z,46.85
2022-10-22T13:52:30.738Z,47.58
2022-10-22T13:54:57.368Z,48.08
2022-10-22T13:57:24.047Z,48.42
2022-10-22T13:59:50.868Z,48.59
2022-10-22T14:02:17.965Z,49.08
2022-10-22T14:04:45.304Z,49.51
2022-10-22T14:07:16.995Z,49.85
2022-10-22T14:09:44.184Z,50.17
2022-10-22T14:12:16.767Z,50.40
2022-10-22T14:14:43.523Z,50.43
2022-10-22T14:17:17.803Z,50.58
2022-10-22T14:19:47.057Z,50.70
2022-10-22T14:22:16.398Z,50.97
2022-10-22T14:24:43.206Z,51.41
2022-10-22T14:27:12.815Z,51.39
2022-10-22T14:29:40.085Z,51.52
2022-10-22T14:32:13.738Z,51.78
2022-10-22T14:34:40.791Z,51.83
2022-10-22T14:37:19.581Z,51.86
2022-10-22T14:39:52.009Z,52.19
2022-10-22T14:42:19.917Z,52.36
2022-10-22T14:44:46.732Z,52.63
2022-10-22T14:47:13.377Z,52.51
2022-10-22T14:49:40.053Z,52.67
2022-10-22T14:52:09.498Z,52.22
2022-10-22T14:54:38.451Z,52.55
2022-10-22T14:57:06.887Z,52.81
2022-10-22T14:59:33.561Z,53.04
2022-10-22T15:02:00.230Z,52.89
2022-10-22T15:04:28.245Z,52.88
2022-10-22T15:06:57.213Z,52.76
2022-10-22T15:09:24.146Z,53.18
2022-10-22T15:11:51.606Z,53.72
2022-10-22T15:14:18.634Z,54.02
2022-10-22T15:16:45.269Z,54.56
2022-10-22T15:19:12.043Z,55.00
2022-10-22T15:21:39.253Z,55.79
2022-10-22T15:24:08.260Z,56.27
2022-10-22T15:26:34.873Z,56.73
2022-10-22T15:29:04.173Z,57.10
2022-10-22T15:31:46.845Z,57.25
2022-10-22T15:34:17.848Z,57.29
2022-10-22T15:36:44.426Z,57.28
2022-10-22T15:39:11.137Z,57.63
2022-10-22T15:41:38.049Z,57.83
2022-10-22T15:44:06.334Z,58.15
2022-10-22T15:46:35.337Z,58.34
2022-10-22T15:49:02.451Z,58.56
2022-10-22T15:51:29.192Z,58.51
2022-10-22T15:53:58.112Z,58.83
2022-10-22T15:56:27.040Z,59.06
2022-10-22T15:58:56.346Z,59.17
2022-10-22T16:01:23.641Z,59.21
2022-10-22T16:04:00.377Z,59.59
2022-10-22T16:06:36.953Z,59.74
2022-10-22T16:09:08.169Z,59.79
2022-10-22T16:11:35.499Z,59.87
2022-10-22T16:14:03.127Z,60.16
2022-10-22T16:16:31.969Z,60.58
2022-10-22T16:18:59.745Z,60.60
2022-10-22T16:21:27.186Z,60.97
2022-10-22T16:23:53.880Z,61.15
2022-10-22T16:26:21.232Z,61.41
2022-10-22T16:28:48.823Z,61.52
2022-10-22T16:31:18.174Z,61.58
2022-10-22T16:33:49.244Z,61.69
2022-10-22T16:36:19.305Z,61.81
2022-10-22T16:38:47.030Z,61.89
2022-10-22T16:41:19.054Z,62.12
2022-10-22T16:43:48.526Z,62.34
2022-10-22T16:46:17.707Z,62.57
2022-10-22T16:48:48.841Z,62.79
2022-10-22T16:51:17.464Z,62.66
2022-10-22T16:53:44.592Z,62.83
2022-10-22T16:56:16.371Z,62.54
2022-10-22T16:58:48.891Z,62.47
2022-10-22T17:01:17.938Z,62.88
2022-10-22T17:03:44.985Z,63.19
2022-10-22T17:06:12.354Z,63.44
2022-10-22T17:08:41.202Z,63.50
2022-10-22T17:11:14.263Z,63.66
2022-10-22T17:13:41.946Z,63.70
2022-10-22T17:16:11.474Z,63.81
2022-10-22T17:18:40.154Z,63.61
2022-10-22T17:21:08.753Z,63.37
2022-10-22T17:23:35.605Z,62.82
2022-10-22T17:26:06.603Z,62.73
2022-10-22T17:28:35.931Z,62.82
2022-10-22T17:31:27.475Z,62.74
2022-10-22T17:33:56.669Z,62.53
2022-10-22T17:36:24.741Z,63.04
2022-10-22T17:38:54.063Z,63.18
2022-10-22T17:41:27.094Z,63.33
2022-10-22T17:43:54.541Z,63.27
2022-10-22T17:46:24.066Z,63.58
2022-10-22T17:48:52.682Z,63.65
2022-10-22T17:51:20.080Z,63.88
2022-10-22T17:53:47.007Z,64.03
2022-10-22T17:56:16.369Z,63.85
2022-10-22T17:58:43.452Z,63.86
2022-10-22T18:01:22.422Z,63.47
2022-10-22T18:03:49.649Z,63.81
2022-10-22T18:06:16.705Z,63.91
2022-10-22T18:08:43.636Z,64.03
2022-10-22T18:11:13.047Z,64.39
2022-10-22T18:13:39.760Z,64.24
2022-10-22T18:16:06.635Z,64.30
2022-10-22T18:18:34.665Z,64.58
2022-10-22T18:21:01.827Z,64.60
2022-10-22T18:23:29.446Z,64.40
2022-10-22T18:25:56.125Z,64.43
2022-10-22T18:28:22.830Z,64.13
2022-10-22T18:30:49.640Z,63.88
2022-10-22T18:33:19.461Z,63.91
2022-10-22T18:35:46.613Z,64.34
2022-10-22T18:38:13.690Z,64.32
2022-10-22T18:40:46.830Z,64.17
2022-10-22T18:43:13.926Z,64.33
2022-10-22T18:45:45.063Z,64.24
2022-10-22T18:48:14.885Z,64.50
2022-10-22T18:50:41.714Z,64.38
2022-10-22T18:53:11.250Z,64.45
2022-10-22T18:55:41.713Z,65.01
2022-10-22T18:58:08.398Z,64.81
2022-10-22T19:00:35.436Z,65.09
2022-10-22T19:03:03.388Z,65.21
2022-10-22T19:05:30.107Z,65.48
2022-10-22T19:07:56.758Z,65.43
2022-10-22T19:10:23.463Z,65.52
2022-10-22T19:12:50.077Z,65.68
2022-10-22T19:15:16.720Z,65.67
2022-10-22T19:17:43.731Z,65.75
2022-10-22T19:20:10.726Z,65.80
2022-10-22T19:22:37.326Z,65.50
2022-10-22T19:25:06.036Z,65.55
2022-10-22T19:27:36.469Z,65.77
2022-10-22T19:30:06.489Z,65.58
2022-10-22T19:32:33.094Z,65.46
2022-10-22T19:34:59.771Z,65.75
2022-10-22T19:37:26.732Z,65.42
2022-10-22T19:39:53.329Z,65.33
2022-10-22T19:42:20.872Z,65.28
2022-10-22T19:44:47.773Z,65.21
2022-10-22T19:47:16.058Z,65.22
2022-10-22T19:49:42.974Z,65.34
2022-10-22T19:52:09.724Z,65.36
2022-10-22T19:54:40.771Z,65.44
2022-10-22T19:57:08.128Z,65.46
2022-10-22T19:59:35.315Z,65.47
2022-10-22T20:02:02.140Z,65.71
2022-10-22T20:04:29.328Z,65.92
2022-10-22T20:06:55.940Z,65.97
2022-10-22T20:09:22.999Z,66.04
2022-10-22T20:11:49.831Z,66.25
2022-10-22T20:14:16.453Z,66.28
2022-10-22T20:16:43.385Z,65.87
2022-10-22T20:19:10.973Z,66.24
2022-10-22T20:21:38.009Z,66.26
2022-10-22T20:24:04.824Z,66.28
2022-10-22T20:26:31.801Z,66.18
2022-10-22T20:28:59.096Z,65.59
2022-10-22T20:31:28.579Z,65.14
2022-10-22T20:34:01.248Z,64.89
2022-10-22T20:36:29.081Z,64.66
2022-10-22T20:39:06.011Z,64.78
2022-10-22T20:41:34.114Z,64.95
2022-10-22T20:44:01.293Z,65.53
2022-10-22T20:46:31.873Z,65.67
2022-10-22T20:49:08.976Z,65.88
2022-10-22T20:51:37.065Z,66.33
2022-10-22T20:54:04.932Z,66.40
2022-10-22T20:56:32.325Z,66.93
2022-10-22T20:59:05.945Z,67.09
2022-10-22T21:01:40.167Z,67.28
2022-10-22T21:04:07.545Z,67.25
2022-10-22T21:06:37.992Z,67.43
2022-10-22T21:09:10.739Z,67.85
2022-10-22T21:11:38.837Z,68.05
2022-10-22T21:14:06.884Z,68.13
2022-10-22T21:16:34.051Z,68.33
2022-10-22T21:19:01.125Z,68.53
2022-10-22T21:21:28.219Z,68.63
2022-10-22T21:23:55.034Z,68.74
2022-10-22T21:26:21.783Z,68.86
2022-10-22T21:28:48.657Z,68.78
2022-10-22T21:31:22.190Z,69.06
2022-10-22T21:33:50.046Z,68.88
2022-10-22T21:36:21.685Z,69.11
2022-10-22T21:38:50.907Z,69.11
2022-10-22T21:41:19.014Z,69.16
2022-10-22T21:43:45.937Z,69.18
2022-10-22T21:46:38.967Z,69.31
2022-10-22T21:49:05.593Z,69.23
2022-10-22T21:51:35.250Z,68.95
2022-10-22T21:54:02.110Z,69.50
2022-10-22T21:56:32.753Z,69.48
2022-10-22T21:58:59.954Z,69.48
2022-10-22T22:01:26.829Z,69.33
2022-10-22T22:03:53.801Z,69.45
2022-10-22T22:06:23.477Z,69.23
2022-10-22T22:08:52.065Z,69.26
2022-10-22T22:11:22.402Z,69.07
2022-10-22T22:13:49.720Z,69.25
2022-10-22T22:16:21.266Z,69.64
2022-10-22T22:18:50.590Z,69.45
2022-10-22T22:21:19.633Z,69.73
2022-10-22T22:23:48.651Z,70.08
2022-10-22T22:26:19.295Z,70.53
2022-10-22T22:28:46.144Z,70.33
2022-10-22T22:31:25.140Z,70.81
2022-10-22T22:33:57.531Z,71.03
2022-10-22T22:36:24.131Z,71.32
2022-10-22T22:38:55.683Z,71.28
2022-10-22T22:41:22.923Z,71.37
2022-10-22T22:43:49.728Z,71.56
2022-10-22T22:46:16.635Z,71.62
2022-10-22T22:48:43.333Z,71.88
2022-10-22T22:51:10.887Z,71.92
2022-10-22T22:53:37.598Z,72.08
2022-10-22T22:56:12.973Z,72.17
2022-10-22T22:58:40.676Z,72.11
2022-10-22T23:01:16.481Z,72.51
2022-10-22T23:03:45.175Z,72.63
2022-10-22T23:06:12.709Z,72.90
2022-10-22T23:08:40.015Z,72.87
2022-10-22T23:11:10.858Z,72.90
2022-10-22T23:13:38.776Z,72.91
2022-10-22T23:16:12.424Z,73.04
2022-10-22T23:18:39.212Z,73.02
2022-10-22T23:21:07.811Z,72.94
2022-10-22T23:23:34.814Z,73.17
2022-10-22T23:26:01.994Z,73.05
2022-10-22T23:28:28.895Z,73.05
2022-10-22T23:30:56.430Z,73.23
2022-10-22T23:33:23.027Z,73.25
2022-10-22T23:35:49.695Z,73.27
2022-10-22T23:38:16.520Z,73.54
2022-10-22T23:40:43.493Z,73.52
2022-10-22T23:43:10.056Z,73.63
2022-10-22T23:45:36.813Z,73.61
2022-10-22T23:48:03.693Z,73.60
2022-10-22T23:50:30.365Z,73.81
2022-10-22T23:52:57.053Z,73.92
2022-10-22T23:55:23.692Z,73.99
2022-10-22T23:57:50.296Z,74.16
